sensor_id;sensor_type;location;lat;lon;timestamp;temperature;humidity
71175;DHT22;58876;51.994;4.472;2023-07-31T00:02:01;17.81;89.62
71175;DHT22;58876;51.994;4.472;2023-07-31T00:04:27;17.74;89.72
71175;DHT22;58876;51.994;4.472;2023-07-31T00:06:52;17.71;89.72
71175;DHT22;58876;51.994;4.472;2023-07-31T00:09:18;17.71;89.90
71175;DHT22;58876;51.994;4.472;2023-07-31T00:11:43;17.60;89.93
71175;DHT22;58876;51.994;4.472;2023-07-31T00:14:09;17.65;89.81
71175;DHT22;58876;51.994;4.472;2023-07-31T00:16:35;17.64;89.91
71175;DHT22;58876;51.994;4.472;2023-07-31T00:19:03;17.61;89.91
71175;DHT22;58876;51.994;4.472;2023-07-31T00:21:28;17.65;89.93
71175;DHT22;58876;51.994;4.472;2023-07-31T00:23:54;17.55;89.71
71175;DHT22;58876;51.994;4.472;2023-07-31T00:26:20;17.60;90.08
71175;DHT22;58876;51.994;4.472;2023-07-31T00:28:45;17.62;90.02
71175;DHT22;58876;51.994;4.472;2023-07-31T00:31:11;17.65;90.12
71175;DHT22;58876;51.994;4.472;2023-07-31T00:33:37;17.64;89.79
71175;DHT22;58876;51.994;4.472;2023-07-31T00:36:11;17.64;89.90
71175;DHT22;58876;51.994;4.472;2023-07-31T00:38:43;17.65;89.84
71175;DHT22;58876;51.994;4.472;2023-07-31T00:41:11;17.70;89.88
71175;DHT22;58876;51.994;4.472;2023-07-31T00:43:36;17.75;90.00
71175;DHT22;58876;51.994;4.472;2023-07-31T00:46:05;17.64;90.17
71175;DHT22;58876;51.994;4.472;2023-07-31T00:48:32;17.62;90.27
71175;DHT22;58876;51.994;4.472;2023-07-31T00:51:01;17.60;90.23
71175;DHT22;58876;51.994;4.472;2023-07-31T00:53:27;17.58;89.99
71175;DHT22;58876;51.994;4.472;2023-07-31T00:55:53;17.52;89.71
71175;DHT22;58876;51.994;4.472;2023-07-31T00:58:19;17.45;89.94
71175;DHT22;58876;51.994;4.472;2023-07-31T01:00:45;17.52;89.99
71175;DHT22;58876;51.994;4.472;2023-07-31T01:03:11;17.34;89.88
71175;DHT22;58876;51.994;4.472;2023-07-31T01:06:05;17.17;90.35
71175;DHT22;58876;51.994;4.472;2023-07-31T01:11:22;17.11;90.43
71175;DHT22;58876;51.994;4.472;2023-07-31T01:13:51;17.21;90.47
71175;DHT22;58876;51.994;4.472;2023-07-31T01:16:17;17.35;90.28
71175;DHT22;58876;51.994;4.472;2023-07-31T01:18:45;17.47;89.95
71175;DHT22;58876;51.994;4.472;2023-07-31T01:27:27;17.57;89.68
71175;DHT22;58876;51.994;4.472;2023-07-31T01:30:32;17.51;89.77
71175;DHT22;58876;51.994;4.472;2023-07-31T01:32:51;17.60;89.73
71175;DHT22;58876;51.994;4.472;2023-07-31T01:35:18;17.58;89.32
71175;DHT22;58876;51.994;4.472;2023-07-31T01:37:45;17.65;89.42
71175;DHT22;58876;51.994;4.472;2023-07-31T01:40:10;17.64;89.10
71175;DHT22;58876;51.994;4.472;2023-07-31T01:42:36;17.62;88.80
71175;DHT22;58876;51.994;4.472;2023-07-31T01:45:02;17.72;88.77
71175;DHT22;58876;51.994;4.472;2023-07-31T01:47:27;17.58;88.70
71175;DHT22;58876;51.994;4.472;2023-07-31T01:49:53;17.61;88.31
71175;DHT22;58876;51.994;4.472;2023-07-31T01:52:18;17.58;88.07
71175;DHT22;58876;51.994;4.472;2023-07-31T01:54:44;17.60;88.33
71175;DHT22;58876;51.994;4.472;2023-07-31T01:57:09;17.57;87.89
71175;DHT22;58876;51.994;4.472;2023-07-31T01:59:35;17.62;88.27
71175;DHT22;58876;51.994;4.472;2023-07-31T02:02:00;17.70;88.09
71175;DHT22;58876;51.994;4.472;2023-07-31T02:04:26;17.60;87.93
71175;DHT22;58876;51.994;4.472;2023-07-31T02:06:52;17.62;88.25
71175;DHT22;58876;51.994;4.472;2023-07-31T02:09:18;17.68;87.87
71175;DHT22;58876;51.994;4.472;2023-07-31T02:11:43;17.74;87.80
71175;DHT22;58876;51.994;4.472;2023-07-31T02:14:09;17.78;87.83
71175;DHT22;58876;51.994;4.472;2023-07-31T02:16:34;17.72;87.40
71175;DHT22;58876;51.994;4.472;2023-07-31T02:19:00;17.64;87.21
71175;DHT22;58876;51.994;4.472;2023-07-31T02:21:25;17.64;87.15
71175;DHT22;58876;51.994;4.472;2023-07-31T02:23:51;17.70;86.72
71175;DHT22;58876;51.994;4.472;2023-07-31T02:26:16;17.68;86.73
71175;DHT22;58876;51.994;4.472;2023-07-31T02:28:42;17.62;86.29
71175;DHT22;58876;51.994;4.472;2023-07-31T02:31:08;17.62;86.38
71175;DHT22;58876;51.994;4.472;2023-07-31T02:33:34;17.70;86.23
71175;DHT22;58876;51.994;4.472;2023-07-31T02:35:59;17.74;85.91
71175;DHT22;58876;51.994;4.472;2023-07-31T02:38:25;17.70;85.29
71175;DHT22;58876;51.994;4.472;2023-07-31T02:40:50;17.64;85.32
71175;DHT22;58876;51.994;4.472;2023-07-31T02:43:16;17.64;85.02
71175;DHT22;58876;51.994;4.472;2023-07-31T02:45:41;17.64;84.64
71175;DHT22;58876;51.994;4.472;2023-07-31T02:48:07;17.67;84.81
71175;DHT22;58876;51.994;4.472;2023-07-31T02:50:33;17.67;84.55
71175;DHT22;58876;51.994;4.472;2023-07-31T02:52:58;17.77;84.83
71175;DHT22;58876;51.994;4.472;2023-07-31T02:55:24;17.64;84.50
71175;DHT22;58876;51.994;4.472;2023-07-31T02:57:50;17.65;84.77
71175;DHT22;58876;51.994;4.472;2023-07-31T03:00:17;17.65;84.99
71175;DHT22;58876;51.994;4.472;2023-07-31T03:02:42;17.74;85.14
71175;DHT22;58876;51.994;4.472;2023-07-31T03:05:08;17.72;84.94
71175;DHT22;58876;51.994;4.472;2023-07-31T03:07:33;17.79;84.65
71175;DHT22;58876;51.994;4.472;2023-07-31T03:09:59;17.89;84.36
71175;DHT22;58876;51.994;4.472;2023-07-31T03:12:24;17.85;84.32
71175;DHT22;58876;51.994;4.472;2023-07-31T03:14:50;17.92;84.34
71175;DHT22;58876;51.994;4.472;2023-07-31T03:17:15;17.77;84.02
71175;DHT22;58876;51.994;4.472;2023-07-31T03:19:41;17.82;83.69
71175;DHT22;58876;51.994;4.472;2023-07-31T03:22:06;17.83;84.12
71175;DHT22;58876;51.994;4.472;2023-07-31T03:24:32;17.85;83.98
71175;DHT22;58876;51.994;4.472;2023-07-31T03:26:57;17.92;84.05
71175;DHT22;58876;51.994;4.472;2023-07-31T03:29:23;17.85;84.65
71175;DHT22;58876;51.994;4.472;2023-07-31T03:31:48;17.81;85.09
71175;DHT22;58876;51.994;4.472;2023-07-31T03:34:14;17.71;85.32
71175;DHT22;58876;51.994;4.472;2023-07-31T03:36:40;17.64;85.78
71175;DHT22;58876;51.994;4.472;2023-07-31T03:39:05;17.64;86.23
71175;DHT22;58876;51.994;4.472;2023-07-31T03:41:31;17.61;86.70
71175;DHT22;58876;51.994;4.472;2023-07-31T03:43:56;17.58;87.10
71175;DHT22;58876;51.994;4.472;2023-07-31T03:46:22;17.60;87.36
71175;DHT22;58876;51.994;4.472;2023-07-31T03:48:48;17.44;88.08
71175;DHT22;58876;51.994;4.472;2023-07-31T03:51:14;17.40;88.59
71175;DHT22;58876;51.994;4.472;2023-07-31T03:53:39;17.42;88.88
71175;DHT22;58876;51.994;4.472;2023-07-31T03:56:05;17.47;88.80
71175;DHT22;58876;51.994;4.472;2023-07-31T03:58:31;17.40;88.78
71175;DHT22;58876;51.994;4.472;2023-07-31T04:00:56;17.42;89.17
71175;DHT22;58876;51.994;4.472;2023-07-31T04:03:22;17.38;89.05
71175;DHT22;58876;51.994;4.472;2023-07-31T04:05:47;17.37;89.01
71175;DHT22;58876;51.994;4.472;2023-07-31T04:08:13;17.26;89.43
71175;DHT22;58876;51.994;4.472;2023-07-31T04:10:38;17.31;89.65
71175;DHT22;58876;51.994;4.472;2023-07-31T04:13:04;17.37;89.69
71175;DHT22;58876;51.994;4.472;2023-07-31T04:15:29;17.44;89.62
71175;DHT22;58876;51.994;4.472;2023-07-31T04:17:55;17.30;89.85
71175;DHT22;58876;51.994;4.472;2023-07-31T04:20:20;17.38;89.88
71175;DHT22;58876;51.994;4.472;2023-07-31T04:22:46;17.30;89.87
71175;DHT22;58876;51.994;4.472;2023-07-31T04:25:11;17.30;90.12
71175;DHT22;58876;51.994;4.472;2023-07-31T04:27:37;17.31;89.96
71175;DHT22;58876;51.994;4.472;2023-07-31T04:30:06;17.20;90.06
71175;DHT22;58876;51.994;4.472;2023-07-31T04:32:32;17.10;90.40
71175;DHT22;58876;51.994;4.472;2023-07-31T04:34:57;17.07;90.22
71175;DHT22;58876;51.994;4.472;2023-07-31T04:37:23;16.97;90.54
71175;DHT22;58876;51.994;4.472;2023-07-31T04:39:51;16.90;90.75
71175;DHT22;58876;51.994;4.472;2023-07-31T04:42:46;16.83;90.73
71175;DHT22;58876;51.994;4.472;2023-07-31T04:45:11;16.86;90.60
71175;DHT22;58876;51.994;4.472;2023-07-31T04:47:37;16.82;90.65
71175;DHT22;58876;51.994;4.472;2023-07-31T04:50:11;16.83;90.59
71175;DHT22;58876;51.994;4.472;2023-07-31T04:52:43;16.87;90.60
71175;DHT22;58876;51.994;4.472;2023-07-31T04:55:14;16.87;90.46
71175;DHT22;58876;51.994;4.472;2023-07-31T04:57:51;16.69;90.70
71175;DHT22;58876;51.994;4.472;2023-07-31T05:00:51;16.73;90.85
71175;DHT22;58876;51.994;4.472;2023-07-31T05:03:24;16.89;90.85
71175;DHT22;58876;51.994;4.472;2023-07-31T05:06:11;16.93;90.53
71175;DHT22;58876;51.994;4.472;2023-07-31T05:08:54;16.96;90.31
71175;DHT22;58876;51.994;4.472;2023-07-31T05:11:23;16.92;90.69
71175;DHT22;58876;51.994;4.472;2023-07-31T05:13:51;16.93;90.63
71175;DHT22;58876;51.994;4.472;2023-07-31T05:16:17;16.93;90.69
71175;DHT22;58876;51.994;4.472;2023-07-31T05:18:42;16.89;90.77
71175;DHT22;58876;51.994;4.472;2023-07-31T05:21:08;17.00;90.76
71175;DHT22;58876;51.994;4.472;2023-07-31T05:23:44;16.94;90.75
71175;DHT22;58876;51.994;4.472;2023-07-31T05:26:15;16.87;90.77
71175;DHT22;58876;51.994;4.472;2023-07-31T05:29:18;16.89;90.98
71175;DHT22;58876;51.994;4.472;2023-07-31T05:31:53;17.02;91.02
71175;DHT22;58876;51.994;4.472;2023-07-31T05:34:22;17.04;90.81
71175;DHT22;58876;51.994;4.472;2023-07-31T05:36:50;17.06;90.69
71175;DHT22;58876;51.994;4.472;2023-07-31T05:39:16;17.04;90.91
71175;DHT22;58876;51.994;4.472;2023-07-31T05:41:52;17.10;90.70
71175;DHT22;58876;51.994;4.472;2023-07-31T05:44:17;17.13;90.60
71175;DHT22;58876;51.994;4.472;2023-07-31T05:46:43;17.13;90.64
71175;DHT22;58876;51.994;4.472;2023-07-31T05:52:23;17.10;90.79
71175;DHT22;58876;51.994;4.472;2023-07-31T05:55:03;17.07;90.98
71175;DHT22;58876;51.994;4.472;2023-07-31T05:57:46;17.11;91.28
71175;DHT22;58876;51.994;4.472;2023-07-31T06:00:15;17.14;91.07
71175;DHT22;58876;51.994;4.472;2023-07-31T06:02:49;17.24;91.03
71175;DHT22;58876;51.994;4.472;2023-07-31T06:08:22;17.14;91.22
71175;DHT22;58876;51.994;4.472;2023-07-31T06:11:27;17.19;91.29
71175;DHT22;58876;51.994;4.472;2023-07-31T06:14:06;17.30;91.08
71175;DHT22;58876;51.994;4.472;2023-07-31T06:17:02;17.40;91.08
71175;DHT22;58876;51.994;4.472;2023-07-31T06:19:59;17.41;90.96
71175;DHT22;58876;51.994;4.472;2023-07-31T06:40:33;17.41;91.08
71175;DHT22;58876;51.994;4.472;2023-07-31T06:47:48;17.41;91.42
71175;DHT22;58876;51.994;4.472;2023-07-31T06:54:34;17.54;91.17
71175;DHT22;58876;51.994;4.472;2023-07-31T07:02:07;17.65;91.23
71175;DHT22;58876;51.994;4.472;2023-07-31T07:20:08;17.57;91.66
71175;DHT22;58876;51.994;4.472;2023-07-31T07:27:18;17.92;91.03
71175;DHT22;58876;51.994;4.472;2023-07-31T10:41:17;19.36;88.22
71175;DHT22;58876;51.994;4.472;2023-07-31T10:51:44;19.26;88.23
71175;DHT22;58876;51.994;4.472;2023-07-31T10:54:43;19.40;88.01
71175;DHT22;58876;51.994;4.472;2023-07-31T11:01:06;19.42;87.27
71175;DHT22;58876;51.994;4.472;2023-07-31T11:04:15;19.45;87.41
71175;DHT22;58876;51.994;4.472;2023-07-31T11:07:13;19.46;87.59
71175;DHT22;58876;51.994;4.472;2023-07-31T11:10:00;19.56;87.89
71175;DHT22;58876;51.994;4.472;2023-07-31T11:12:59;19.70;87.19
71175;DHT22;58876;51.994;4.472;2023-07-31T11:15:54;19.77;85.98
71175;DHT22;58876;51.994;4.472;2023-07-31T11:18:51;19.84;86.58
71175;DHT22;58876;51.994;4.472;2023-07-31T11:27:46;19.88;87.03
71175;DHT22;58876;51.994;4.472;2023-07-31T11:33:58;19.73;87.21
71175;DHT22;58876;51.994;4.472;2023-07-31T11:36:47;19.46;87.57
71175;DHT22;58876;51.994;4.472;2023-07-31T11:43:03;19.71;86.98
71175;DHT22;58876;51.994;4.472;2023-07-31T11:49:09;19.79;87.16
71175;DHT22;58876;51.994;4.472;2023-07-31T11:51:42;19.91;86.74
71175;DHT22;58876;51.994;4.472;2023-07-31T11:54:31;19.86;85.86
71175;DHT22;58876;51.994;4.472;2023-07-31T11:57:23;19.81;86.13
71175;DHT22;58876;51.994;4.472;2023-07-31T12:00:04;19.73;86.00
71175;DHT22;58876;51.994;4.472;2023-07-31T12:02:44;19.79;86.25
71175;DHT22;58876;51.994;4.472;2023-07-31T12:05:53;19.81;85.81
71175;DHT22;58876;51.994;4.472;2023-07-31T12:12:27;20.14;84.94
71175;DHT22;58876;51.994;4.472;2023-07-31T12:17:56;20.08;85.47
71175;DHT22;58876;51.994;4.472;2023-07-31T12:20:34;20.08;86.18
71175;DHT22;58876;51.994;4.472;2023-07-31T12:23:38;20.18;85.48
71175;DHT22;58876;51.994;4.472;2023-07-31T12:26:16;20.25;85.28
71175;DHT22;58876;51.994;4.472;2023-07-31T12:29:04;20.29;85.38
71175;DHT22;58876;51.994;4.472;2023-07-31T12:31:54;20.52;84.24
71175;DHT22;58876;51.994;4.472;2023-07-31T12:35:14;20.47;84.88
71175;DHT22;58876;51.994;4.472;2023-07-31T12:38:26;20.48;84.28
71175;DHT22;58876;51.994;4.472;2023-07-31T12:41:17;20.35;84.06
71175;DHT22;58876;51.994;4.472;2023-07-31T12:44:01;20.29;84.41
71175;DHT22;58876;51.994;4.472;2023-07-31T12:46:39;20.20;85.38
71175;DHT22;58876;51.994;4.472;2023-07-31T12:49:23;20.04;86.09
71175;DHT22;58876;51.994;4.472;2023-07-31T12:54:42;20.20;85.99
71175;DHT22;58876;51.994;4.472;2023-07-31T12:57:13;19.74;86.75
71175;DHT22;58876;51.994;4.472;2023-07-31T12:59:51;19.74;87.84
71175;DHT22;58876;51.994;4.472;2023-07-31T13:02:50;19.79;87.48
71175;DHT22;58876;51.994;4.472;2023-07-31T13:05:47;19.59;88.19
71175;DHT22;58876;51.994;4.472;2023-07-31T13:08:20;19.57;88.11
71175;DHT22;58876;51.994;4.472;2023-07-31T13:10:48;19.56;88.59
71175;DHT22;58876;51.994;4.472;2023-07-31T13:13:33;19.70;88.53
71175;DHT22;58876;51.994;4.472;2023-07-31T13:15:59;19.76;88.21
71175;DHT22;58876;51.994;4.472;2023-07-31T13:18:35;19.63;88.20
71175;DHT22;58876;51.994;4.472;2023-07-31T13:21:03;19.67;88.31
71175;DHT22;58876;51.994;4.472;2023-07-31T13:23:50;19.70;88.04
71175;DHT22;58876;51.994;4.472;2023-07-31T13:26:25;19.79;88.15
71175;DHT22;58876;51.994;4.472;2023-07-31T13:33:08;19.40;88.65
71175;DHT22;58876;51.994;4.472;2023-07-31T13:39:35;19.60;88.41
71175;DHT22;58876;51.994;4.472;2023-07-31T13:53:22;19.53;89.16
71175;DHT22;58876;51.994;4.472;2023-07-31T13:56:31;19.62;89.11
71175;DHT22;58876;51.994;4.472;2023-07-31T14:10:12;19.38;89.52
71175;DHT22;58876;51.994;4.472;2023-07-31T14:24:35;19.43;89.12
71175;DHT22;58876;51.994;4.472;2023-07-31T14:31:43;19.57;89.43
71175;DHT22;58876;51.994;4.472;2023-07-31T14:34:19;19.50;88.70
71175;DHT22;58876;51.994;4.472;2023-07-31T15:58:22;18.84;91.03
71175;DHT22;58876;51.994;4.472;2023-07-31T16:05:28;18.99;90.84
71175;DHT22;58876;51.994;4.472;2023-07-31T16:37:11;19.02;89.72
71175;DHT22;58876;51.994;4.472;2023-07-31T17:52:02;19.05;89.80
71175;DHT22;58876;51.994;4.472;2023-07-31T18:05:12;18.92;88.92
71175;DHT22;58876;51.994;4.472;2023-07-31T18:08:19;18.90;89.04
71175;DHT22;58876;51.994;4.472;2023-07-31T18:14:46;19.16;88.63
71175;DHT22;58876;51.994;4.472;2023-07-31T18:21:06;19.02;88.68
71175;DHT22;58876;51.994;4.472;2023-07-31T18:37:59;18.46;85.93
71175;DHT22;58876;51.994;4.472;2023-07-31T18:55:15;17.99;85.37
71175;DHT22;58876;51.994;4.472;2023-07-31T19:05:39;17.79;85.73
71175;DHT22;58876;51.994;4.472;2023-07-31T19:12:06;17.99;86.06
71175;DHT22;58876;51.994;4.472;2023-07-31T19:14:47;17.98;86.11
71175;DHT22;58876;51.994;4.472;2023-07-31T19:17:55;18.05;86.06
71175;DHT22;58876;51.994;4.472;2023-07-31T19:20:48;18.14;86.32
71175;DHT22;58876;51.994;4.472;2023-07-31T19:23:50;18.17;86.26
71175;DHT22;58876;51.994;4.472;2023-07-31T19:41:32;18.25;86.74
71175;DHT22;58876;51.994;4.472;2023-07-31T19:47:47;18.10;86.08
71175;DHT22;58876;51.994;4.472;2023-07-31T19:50:56;18.09;85.81
71175;DHT22;58876;51.994;4.472;2023-07-31T20:04:30;18.14;84.45
71175;DHT22;58876;51.994;4.472;2023-07-31T20:07:28;17.99;84.51
71175;DHT22;58876;51.994;4.472;2023-07-31T20:20:51;18.08;84.52
71175;DHT22;58876;51.994;4.472;2023-07-31T20:24:00;17.93;84.56
71175;DHT22;58876;51.994;4.472;2023-07-31T20:26:49;17.95;84.68
71175;DHT22;58876;51.994;4.472;2023-07-31T20:30:09;17.99;84.56
71175;DHT22;58876;51.994;4.472;2023-07-31T20:32:59;17.89;84.65
71175;DHT22;58876;51.994;4.472;2023-07-31T20:35:49;17.99;84.24
71175;DHT22;58876;51.994;4.472;2023-07-31T20:42:11;18.06;84.38
71175;DHT22;58876;51.994;4.472;2023-07-31T20:45:45;18.05;84.17
71175;DHT22;58876;51.994;4.472;2023-07-31T20:48:26;18.09;84.33
71175;DHT22;58876;51.994;4.472;2023-07-31T20:51:48;18.02;84.18
71175;DHT22;58876;51.994;4.472;2023-07-31T20:54:43;17.85;84.68
71175;DHT22;58876;51.994;4.472;2023-07-31T21:04:06;18.02;84.19
71175;DHT22;58876;51.994;4.472;2023-07-31T21:10:37;18.06;84.05
71175;DHT22;58876;51.994;4.472;2023-07-31T21:17:40;18.01;83.69
71175;DHT22;58876;51.994;4.472;2023-07-31T21:20:30;18.06;83.82
71175;DHT22;58876;51.994;4.472;2023-07-31T21:23:48;17.96;83.84
71175;DHT22;58876;51.994;4.472;2023-07-31T21:27:09;18.05;83.86
71175;DHT22;58876;51.994;4.472;2023-07-31T21:30:10;18.02;83.81
71175;DHT22;58876;51.994;4.472;2023-07-31T21:36:59;17.70;83.36
71175;DHT22;58876;51.994;4.472;2023-07-31T21:50:48;17.06;84.46
71175;DHT22;58876;51.994;4.472;2023-07-31T21:54:14;17.16;84.49
71175;DHT22;58876;51.994;4.472;2023-07-31T21:57:26;17.31;84.64
71175;DHT22;58876;51.994;4.472;2023-07-31T22:04:01;17.48;84.32
71175;DHT22;58876;51.994;4.472;2023-07-31T22:06:58;17.60;84.05
71175;DHT22;58876;51.994;4.472;2023-07-31T22:10:09;17.64;84.25
71175;DHT22;58876;51.994;4.472;2023-07-31T22:16:40;17.83;83.95
71175;DHT22;58876;51.994;4.472;2023-07-31T22:32:37;17.92;83.93
71175;DHT22;58876;51.994;4.472;2023-07-31T22:35:45;17.85;83.78
71175;DHT22;58876;51.994;4.472;2023-07-31T22:45:22;17.81;84.73
71175;DHT22;58876;51.994;4.472;2023-07-31T23:05:21;17.64;86.08
71175;DHT22;58876;51.994;4.472;2023-07-31T23:08:29;17.72;86.06
71175;DHT22;58876;51.994;4.472;2023-07-31T23:11:27;17.67;85.51
71175;DHT22;58876;51.994;4.472;2023-07-31T23:14:19;17.55;84.57
71175;DHT22;58876;51.994;4.472;2023-07-31T23:24:03;17.52;83.18
71175;DHT22;58876;51.994;4.472;2023-07-31T23:36:34;17.60;82.57
71175;DHT22;58876;51.994;4.472;2023-07-31T23:39:42;17.61;82.70
71175;DHT22;58876;51.994;4.472;2023-07-31T23:42:33;17.65;82.62
71175;DHT22;58876;51.994;4.472;2023-07-31T23:49:13;17.67;82.11
71175;DHT22;58876;51.994;4.472;2023-07-31T23:55:31;17.67;81.86
71175;DHT22;58876;51.994;4.472;2023-07-31T23:59:27;17.58;82.05
